Alton, TX

9:27 AM CDT on April 27, 2015 (GMT -0500)
Retama Village Weather | | Change Station
CLOSE
Current Station
Personal Weather Station
Location: Mission, TX
Elevation: 121 ft
Nearby Weather Stations

Elev 121 ft 26.19 °N, 98.38 °W | Updated 19 seconds ago

Overcast
Overcast
84.2 °F
Feels Like 92 °F
N
5.4
Wind Variable Wind from NNW
Gusts 11.9 mph

Today
High -- | Low -- °F
--% Chance of Precip.
Yesterday
High -- | Low -- °F
Precip. -- in
6:59 AM 8:03 PM
Waxing Gibbous, 65% visible
Pressure 29.62 in
Visibility 5.0 miles
Clouds Mostly Cloudy 1900 ft
Mostly Cloudy 2400 ft
Heat Index 92 °F
Dew Point 75 °F
Humidity 73%
Rainfall 0.00 in
Snow Depth Not available.
UV 0.0 out of 12
Pollen 7.00 out of 12
Air Quality Not available.
Flu Activity Local Activity
METAR KMFE 271353Z 32014G24KT 5SM HZ BKN019 BKN024 28/23 A2962 RMK AO2 SLP028 T02780233

More Conditions Fewer Conditions

Pressure 29.62 in
Visibility 5.0 miles
Clouds Mostly Cloudy 1900 ft
Mostly Cloudy 2400 ft
Heat Index 92 °F
Dew Point 75 °F
Humidity 73%
Rainfall 0.00 in
Snow Depth Not available.
UV 0.0 out of 12
Pollen 7.00 out of 12
Air Quality Not available.
Flu Activity Local Activity
METAR KMFE 271353Z 32014G24KT 5SM HZ BKN019 BKN024 28/23 A2962 RMK AO2 SLP028 T02780233

More Conditions Fewer Conditions

10-Day Weather Forecast

Almanac

Astronomy

Apr. 27, 2015 Rise Set
Actual Time
Civil Twilight
Nautical Twilight
Astronomical Twilight
Moon
Length of Visible Light
Length of Day
Tomorrow will be .
, % of the Moon is Illuminated

Today's Extremes

State Highs State Lows

Community

WunderPhotos

Upload Photos

1,817,319 photos uploaded!

WunderBlogs® & News

Nearby

Air Quality

  Air Quality AQ Index Pollutant
Not available.

Snow Depth

Station Depth Elevation

Earthquake Activity

City Distance Mag. Time & Date
Minimum magnitude displayed is 2.5.

Coastal Water Temperatures

Place Temperature

Stations

Nearby Weather Stations

Station Location Temp. Windchill Dew Point Humidity Wind Precip. Elev Updated Type